Time;durP1;ratioP1;P1;durP2;ratioP2;P2;SDS_P1;SDS_P2;PMS_P1;PMS_P2;Temp;Humidity;BMP_temperature;BMP_pressure;BME280_temperature;BME280_humidity;BME280_pressure;Samples;Min_cycle;Max_cycle;Signal;HPM_P1;HPM_P2
2021/09/14 07:44:38;;;;;;;12.15;9.73;;;;;;;;;;5723181;23;20145;-75
2021/09/14 08:33:27;;;;;;;10.70;9.70;;;;;;;;;;4976344;28;20045;-83
2021/09/14 08:35:52;;;;;;;11.35;9.80;;;;;;;;;;4995691;28;20023;-84
2021/09/14 08:38:18;;;;;;;12.32;11.00;;;;;;;;;;4995493;28;20058;-82
2021/09/14 08:40:45;;;;;;;11.13;9.95;;;;;;;;;;4995960;28;20034;-83
2021/09/14 08:43:12;;;;;;;10.95;9.85;;;;;;;;;;4995825;28;20101;-84
2021/09/14 08:45:38;;;;;;;13.20;10.13;;;;;;;;;;4978876;28;20031;-84
2021/09/14 08:48:04;;;;;;;11.88;10.18;;;;;;;;;;4995871;28;20034;-84
2021/09/14 08:50:30;;;;;;;9.93;8.93;;;;;;;;;;4995595;28;20018;-85
2021/09/14 08:52:55;;;;;;;11.10;9.90;;;;;;;;;;4978239;28;20034;-85
2021/09/14 08:55:21;;;;;;;10.68;9.52;;;;;;;;;;4995658;28;20084;-85
2021/09/14 08:57:54;;;;;;;10.48;9.38;;;;;;;;;;5004378;23;20058;-87
2021/09/14 09:00:30;;;;;;;12.18;10.60;;;;;;;;;;4995867;28;20030;-87
2021/09/14 09:02:56;;;;;;;9.98;9.00;;;;;;;;;;4996445;28;20026;-86
2021/09/14 09:05:29;;;;;;;11.15;10.00;;;;;;;;;;4995697;28;20037;-85
2021/09/14 09:07:55;;;;;;;10.57;9.50;;;;;;;;;;4978282;28;20426;-87
2021/09/14 09:10:20;;;;;;;10.90;9.80;;;;;;;;;;4995851;28;20049;-86
2021/09/14 09:12:48;;;;;;;11.82;10.50;;;;;;;;;;4995649;28;20374;-84
2021/09/14 09:15:22;;;;;;;10.05;9.15;;;;;;;;;;4978679;28;20081;-86
2021/09/14 09:17:59;;;;;;;10.10;9.05;;;;;;;;;;4995258;28;20022;-86
2021/09/14 09:20:24;;;;;;;10.75;9.07;;;;;;;;;;4977948;28;20050;-85
2021/09/14 09:22:59;;;;;;;11.95;9.90;;;;;;;;;;4995420;28;20508;-86
2021/09/14 09:25:25;;;;;;;10.15;9.15;;;;;;;;;;4977913;28;20026;-86
2021/09/14 09:28:10;;;;;;;9.93;9.00;;;;;;;;;;4995071;28;20396;-86
2021/09/14 09:30:38;;;;;;;10.73;9.65;;;;;;;;;;4995355;28;20030;-88
2021/09/14 09:33:09;;;;;;;11.40;10.35;;;;;;;;;;4978193;28;20033;-86
2021/09/14 09:35:39;;;;;;;10.77;9.82;;;;;;;;;;4976871;28;20088;-81
2021/09/14 09:38:06;;;;;;;11.93;10.73;;;;;;;;;;4994137;28;20022;-83
2021/09/14 09:40:43;;;;;;;10.63;9.05;;;;;;;;;;4994055;28;20082;-83
2021/09/14 09:43:10;;;;;;;10.70;9.32;;;;;;;;;;4976770;28;20018;-83
2021/09/14 09:45:46;;;;;;;12.00;9.98;;;;;;;;;;4994267;28;20026;-82
2021/09/14 09:48:14;;;;;;;11.82;10.32;;;;;;;;;;4994500;28;20034;-81
2021/09/14 09:50:41;;;;;;;11.20;9.38;;;;;;;;;;4994082;28;20113;-83
2021/09/14 09:53:08;;;;;;;11.43;9.70;;;;;;;;;;4993960;28;20026;-81
2021/09/14 09:55:34;;;;;;;10.73;9.82;;;;;;;;;;4994430;28;20205;-79
2021/09/14 09:58:04;;;;;;;11.20;10.10;;;;;;;;;;4994089;28;20082;-85
2021/09/14 10:00:38;;;;;;;12.02;10.75;;;;;;;;;;4994124;28;20456;-83
2021/09/14 10:03:10;;;;;;;10.60;9.60;;;;;;;;;;4976780;28;20059;-80
2021/09/14 10:05:37;;;;;;;14.10;10.77;;;;;;;;;;4994080;28;20030;-84
2021/09/14 10:08:11;;;;;;;9.93;8.93;;;;;;;;;;4976567;28;20038;-83
2021/09/14 10:10:39;;;;;;;11.27;10.18;;;;;;;;;;4976521;28;20431;-85
2021/09/14 10:13:07;;;;;;;11.82;10.65;;;;;;;;;;4993951;28;20046;-83
2021/09/14 10:15:43;;;;;;;12.07;10.73;;;;;;;;;;4994294;28;20078;-84
2021/09/14 10:18:10;;;;;;;16.08;11.95;;;;;;;;;;4993863;28;20428;-79
2021/09/14 10:20:42;;;;;;;13.50;10.73;;;;;;;;;;4993951;28;20085;-80
2021/09/14 10:23:14;;;;;;;11.25;10.18;;;;;;;;;;4994051;28;20030;-82
2021/09/14 10:25:40;;;;;;;11.05;9.73;;;;;;;;;;4994085;28;20027;-82
2021/09/14 10:28:10;;;;;;;12.68;11.38;;;;;;;;;;4976981;28;20440;-85
2021/09/14 10:30:36;;;;;;;11.77;10.57;;;;;;;;;;4994000;28;20553;-86
2021/09/14 10:33:02;;;;;;;12.98;11.80;;;;;;;;;;4994335;28;20034;-86
2021/09/14 10:35:31;;;;;;;14.73;12.30;;;;;;;;;;4976548;28;20018;-88
2021/09/14 10:38:10;;;;;;;13.32;12.02;;;;;;;;;;5007380;28;20053;-86
2021/09/14 10:40:39;;;;;;;12.35;11.05;;;;;;;;;;5014767;28;20072;-85
2021/09/14 10:43:05;;;;;;;11.83;10.63;;;;;;;;;;5016768;28;20049;-84
2021/09/14 10:45:41;;;;;;;13.25;11.38;;;;;;;;;;5017081;28;20746;-84
2021/09/14 10:48:37;;;;;;;12.35;11.15;;;;;;;;;;5016715;28;20029;-87
2021/09/14 10:51:14;;;;;;;11.43;10.45;;;;;;;;;;4998468;28;20046;-85
2021/09/14 10:53:40;;;;;;;12.27;11.10;;;;;;;;;;4999077;28;20460;-86
2021/09/14 10:56:10;;;;;;;15.10;11.77;;;;;;;;;;5016964;28;20053;-85
2021/09/14 10:58:45;;;;;;;13.48;12.07;;;;;;;;;;5016272;28;20073;-85
2021/09/14 11:01:22;;;;;;;14.25;12.55;;;;;;;;;;5016521;28;20450;-83
2021/09/14 11:04:02;;;;;;;14.38;11.23;;;;;;;;;;5004409;28;20033;-83
2021/09/14 11:06:29;;;;;;;12.23;10.90;;;;;;;;;;4996847;28;20022;-84
2021/09/14 11:09:06;;;;;;;13.60;11.63;;;;;;;;;;4996837;28;20094;-84
2021/09/14 11:11:33;;;;;;;14.95;13.55;;;;;;;;;;4996729;28;20022;-84
2021/09/14 11:13:58;;;;;;;13.52;11.95;;;;;;;;;;4979383;28;20392;-85
2021/09/14 11:16:24;;;;;;;12.48;11.18;;;;;;;;;;4997187;28;20121;-85
2021/09/14 11:18:51;;;;;;;14.75;12.80;;;;;;;;;;4997191;28;20034;-85
2021/09/14 11:21:19;;;;;;;11.98;10.60;;;;;;;;;;4996830;28;20030;-85
2021/09/14 11:23:47;;;;;;;11.75;10.63;;;;;;;;;;4996913;28;20488;-85
2021/09/14 11:26:16;;;;;;;11.65;10.38;;;;;;;;;;4996721;28;20385;-85
2021/09/14 11:28:59;;;;;;;11.98;10.75;;;;;;;;;;4996611;28;20551;-84
2021/09/14 11:31:29;;;;;;;12.25;11.13;;;;;;;;;;4996555;28;20038;-86
2021/09/14 11:33:54;;;;;;;23.23;14.68;;;;;;;;;;4996337;28;20109;-83
2021/09/14 11:36:20;;;;;;;13.05;11.55;;;;;;;;;;5002677;28;20168;-83
2021/09/14 11:38:47;;;;;;;12.07;10.75;;;;;;;;;;4985959;28;20045;-82
2021/09/14 11:41:13;;;;;;;11.60;10.40;;;;;;;;;;4996378;28;20540;-84
2021/09/14 11:43:43;;;;;;;11.43;10.23;;;;;;;;;;4995910;28;20389;-82
2021/09/14 17:18:44;;;;;;;12.80;10.77;;;;;;;;;;5418597;23;20125;-82
2021/09/14 17:21:09;;;;;;;11.93;10.10;;;;;;;;;;4974737;28;20051;-79
2021/09/14 17:23:35;;;;;;;12.77;10.43;;;;;;;;;;4975212;28;20026;-83
2021/09/14 17:26:00;;;;;;;13.77;10.20;;;;;;;;;;4974850;28;20027;-80
2021/09/14 17:28:27;;;;;;;11.88;10.73;;;;;;;;;;4975036;28;20034;-82
2021/09/14 17:30:53;;;;;;;12.07;10.88;;;;;;;;;;4974945;28;20030;-83
2021/09/14 17:33:19;;;;;;;12.32;10.05;;;;;;;;;;4957322;28;20445;-80
2021/09/14 17:35:45;;;;;;;13.30;10.20;;;;;;;;;;4974710;28;20035;-79
2021/09/14 17:38:10;;;;;;;12.00;10.80;;;;;;;;;;4974754;28;20082;-79
2021/09/14 17:40:36;;;;;;;15.50;10.80;;;;;;;;;;4975056;28;20051;-79
2021/09/14 17:43:01;;;;;;;11.43;10.27;;;;;;;;;;4974829;28;20493;-84
2021/09/14 17:45:26;;;;;;;11.10;10.00;;;;;;;;;;4974591;28;20030;-81
2021/09/14 17:47:52;;;;;;;11.88;10.30;;;;;;;;;;4957217;28;20027;-80
2021/09/14 17:50:17;;;;;;;11.13;10.02;;;;;;;;;;4977415;28;20437;-80
2021/09/14 17:52:43;;;;;;;12.95;9.57;;;;;;;;;;4978671;28;20062;-80
2021/09/14 17:55:10;;;;;;;12.43;10.50;;;;;;;;;;4978333;28;20473;-80
2021/09/14 17:57:36;;;;;;;11.27;10.20;;;;;;;;;;4978712;28;20066;-81
2021/09/14 18:00:04;;;;;;;12.07;10.88;;;;;;;;;;4978580;28;20057;-81
2021/09/14 18:02:29;;;;;;;12.18;9.52;;;;;;;;;;4978583;28;20034;-82
2021/09/14 18:04:55;;;;;;;15.07;11.73;;;;;;;;;;4983910;28;20389;-81
2021/09/14 18:07:20;;;;;;;12.80;10.60;;;;;;;;;;4997879;28;20041;-86
2021/09/14 18:09:46;;;;;;;12.15;10.95;;;;;;;;;;4998232;28;20027;-83
2021/09/14 18:12:11;;;;;;;12.10;10.85;;;;;;;;;;4997904;28;20026;-87
2021/09/14 18:14:37;;;;;;;13.32;12.02;;;;;;;;;;4990865;28;20105;-80
2021/09/14 18:17:03;;;;;;;15.82;10.48;;;;;;;;;;4978403;28;20458;-84
2021/09/14 18:19:28;;;;;;;12.52;11.23;;;;;;;;;;4978609;28;20065;-86
2021/09/14 18:21:53;;;;;;;13.05;11.75;;;;;;;;;;4978201;28;20058;-78
2021/09/14 18:24:19;;;;;;;12.88;11.57;;;;;;;;;;4978919;28;20022;-86
2021/09/14 18:26:44;;;;;;;14.85;11.52;;;;;;;;;;4978698;28;20465;-81
2021/09/14 18:29:10;;;;;;;15.50;13.23;;;;;;;;;;4960869;28;20082;-79
2021/09/14 18:31:35;;;;;;;12.95;11.63;;;;;;;;;;4978138;28;20081;-79
2021/09/14 18:34:02;;;;;;;12.77;11.40;;;;;;;;;;4978020;28;20066;-84
2021/09/14 18:36:28;;;;;;;13.27;11.90;;;;;;;;;;4982999;28;20042;-85
2021/09/14 18:38:54;;;;;;;15.10;12.00;;;;;;;;;;4983076;28;20034;-83
2021/09/14 18:41:19;;;;;;;13.00;11.25;;;;;;;;;;4977797;28;20019;-77
2021/09/14 18:43:46;;;;;;;11.82;10.63;;;;;;;;;;4977855;28;20026;-78
2021/09/14 18:46:11;;;;;;;14.98;11.00;;;;;;;;;;4977836;28;20381;-82
2021/09/14 18:48:37;;;;;;;14.70;11.50;;;;;;;;;;4977861;28;20166;-78
2021/09/14 18:51:04;;;;;;;15.38;12.60;;;;;;;;;;4977457;28;20154;-79
2021/09/14 18:53:29;;;;;;;13.07;11.55;;;;;;;;;;4960311;28;20035;-78
2021/09/14 18:55:56;;;;;;;12.43;11.13;;;;;;;;;;4977824;28;20027;-77
2021/09/14 18:58:21;;;;;;;12.23;11.02;;;;;;;;;;4977884;28;20030;-80
2021/09/14 19:00:47;;;;;;;13.18;10.30;;;;;;;;;;4977015;28;20026;-79
2021/09/14 19:03:13;;;;;;;12.80;11.50;;;;;;;;;;4977601;28;20110;-87
2021/09/14 19:05:39;;;;;;;11.77;10.68;;;;;;;;;;4977460;28;20038;-80
2021/09/14 19:08:06;;;;;;;14.43;10.77;;;;;;;;;;4977994;28;20023;-81
2021/09/14 19:10:32;;;;;;;13.13;10.70;;;;;;;;;;4977407;28;20053;-80
2021/09/14 19:12:58;;;;;;;12.07;10.85;;;;;;;;;;4959911;28;20022;-80
2021/09/14 19:15:25;;;;;;;12.20;11.00;;;;;;;;;;4977338;28;20086;-79
2021/09/14 19:17:50;;;;;;;13.63;11.07;;;;;;;;;;4976977;28;20043;-78
2021/09/14 19:20:16;;;;;;;15.32;10.55;;;;;;;;;;4976994;28;20457;-79
2021/09/14 19:22:41;;;;;;;12.75;10.80;;;;;;;;;;4977079;28;20038;-79
2021/09/14 19:25:08;;;;;;;13.05;11.73;;;;;;;;;;4977105;28;20026;-78
2021/09/14 19:27:34;;;;;;;14.02;10.70;;;;;;;;;;4976917;28;20030;-79
2021/09/14 19:29:59;;;;;;;13.80;10.65;;;;;;;;;;4977239;28;20026;-80
2021/09/14 19:32:25;;;;;;;13.25;10.98;;;;;;;;;;4976844;28;20034;-78
2021/09/14 19:34:51;;;;;;;12.02;10.75;;;;;;;;;;4977248;28;20026;-79
2021/09/14 19:37:16;;;;;;;13.82;11.75;;;;;;;;;;4991345;28;20045;-79
2021/09/14 19:39:42;;;;;;;12.70;10.75;;;;;;;;;;4997134;28;20030;-79
2021/09/14 19:42:07;;;;;;;12.27;10.98;;;;;;;;;;4997172;28;20027;-79
2021/09/14 19:44:33;;;;;;;13.68;12.18;;;;;;;;;;4997886;28;20040;-81
2021/09/14 19:46:59;;;;;;;13.82;11.68;;;;;;;;;;4998878;28;20034;-78
2021/09/14 19:49:24;;;;;;;12.48;11.23;;;;;;;;;;4997046;28;20100;-78
2021/09/14 19:51:50;;;;;;;13.70;11.95;;;;;;;;;;4997019;28;20109;-79
2021/09/14 19:54:15;;;;;;;11.93;10.70;;;;;;;;;;4996577;28;20038;-77
2021/09/14 19:56:42;;;;;;;19.17;11.65;;;;;;;;;;4997479;28;20488;-77
2021/09/14 19:59:08;;;;;;;11.95;10.48;;;;;;;;;;4981200;28;20082;-79
2021/09/14 20:01:33;;;;;;;13.77;11.52;;;;;;;;;;4977595;28;20030;-82
2021/09/14 20:03:59;;;;;;;13.10;11.77;;;;;;;;;;4959268;28;20027;-78
2021/09/14 20:06:24;;;;;;;14.73;11.45;;;;;;;;;;4976540;28;20031;-78
2021/09/14 20:08:50;;;;;;;12.48;11.18;;;;;;;;;;4976700;28;20114;-78
2021/09/14 20:11:15;;;;;;;13.88;11.95;;;;;;;;;;4976093;28;20078;-78
2021/09/14 20:13:41;;;;;;;13.77;11.75;;;;;;;;;;4975260;28;20054;-80
2021/09/14 20:16:06;;;;;;;13.27;11.88;;;;;;;;;;4976245;28;20098;-79
2021/09/14 20:18:32;;;;;;;12.35;11.02;;;;;;;;;;4976384;28;20064;-78
2021/09/14 20:20:58;;;;;;;12.63;11.30;;;;;;;;;;4975830;28;20050;-78
2021/09/14 20:23:23;;;;;;;12.43;11.23;;;;;;;;;;4976231;28;20035;-78
2021/09/14 20:25:49;;;;;;;14.60;11.85;;;;;;;;;;4976160;28;20046;-78
2021/09/14 20:28:15;;;;;;;14.20;12.25;;;;;;;;;;4975759;28;20418;-78
2021/09/14 20:30:41;;;;;;;13.48;12.18;;;;;;;;;;4975778;28;20031;-78
2021/09/14 20:33:08;;;;;;;14.48;12.40;;;;;;;;;;4975694;28;20033;-78
2021/09/14 20:35:33;;;;;;;14.32;12.25;;;;;;;;;;4975956;28;20110;-78
2021/09/14 20:37:59;;;;;;;13.45;12.07;;;;;;;;;;4975655;28;20126;-78
2021/09/14 20:40:24;;;;;;;16.00;12.00;;;;;;;;;;4975782;28;20422;-78
2021/09/14 20:42:50;;;;;;;14.95;12.68;;;;;;;;;;4975712;28;20037;-78
2021/09/14 20:45:16;;;;;;;12.85;11.65;;;;;;;;;;4975565;28;20023;-78
2021/09/14 20:47:42;;;;;;;12.25;10.95;;;;;;;;;;4975463;28;20085;-78
2021/09/14 20:50:08;;;;;;;13.25;11.88;;;;;;;;;;4975568;28;20417;-78
2021/09/14 20:52:34;;;;;;;13.02;11.63;;;;;;;;;;4975745;28;20370;-79
2021/09/14 20:54:59;;;;;;;14.85;12.40;;;;;;;;;;4975695;28;20029;-78
2021/09/14 20:57:25;;;;;;;13.55;12.15;;;;;;;;;;4975250;28;20109;-78
2021/09/14 20:59:50;;;;;;;13.73;12.15;;;;;;;;;;4975567;28;20023;-78
2021/09/14 21:02:16;;;;;;;13.82;12.48;;;;;;;;;;4975611;28;20031;-78
2021/09/14 21:04:41;;;;;;;14.13;12.73;;;;;;;;;;4957991;28;20035;-79
2021/09/14 21:07:07;;;;;;;14.82;12.73;;;;;;;;;;4975248;28;20082;-78
2021/09/14 21:09:32;;;;;;;13.02;11.68;;;;;;;;;;4975247;28;20477;-79
2021/09/14 21:11:58;;;;;;;15.13;12.23;;;;;;;;;;4979440;28;20373;-78
2021/09/14 21:14:24;;;;;;;13.27;11.98;;;;;;;;;;4980653;28;20085;-79
2021/09/14 21:16:49;;;;;;;16.95;13.13;;;;;;;;;;4975195;28;20462;-78
2021/09/14 21:19:15;;;;;;;14.00;12.13;;;;;;;;;;4992914;28;20116;-78
2021/09/14 21:21:40;;;;;;;13.95;12.07;;;;;;;;;;4994597;28;20054;-78
2021/09/14 21:24:06;;;;;;;14.68;13.18;;;;;;;;;;4994157;28;20030;-78
2021/09/14 21:26:31;;;;;;;13.27;11.35;;;;;;;;;;4994365;28;20448;-78
2021/09/14 21:28:57;;;;;;;14.32;12.43;;;;;;;;;;4988723;28;20477;-78
2021/09/14 21:31:23;;;;;;;14.68;11.98;;;;;;;;;;4984847;28;20042;-78
2021/09/14 21:33:48;;;;;;;17.08;12.68;;;;;;;;;;4974780;28;20042;-78
2021/09/14 21:36:14;;;;;;;13.65;11.95;;;;;;;;;;4974832;28;20061;-78
2021/09/14 21:38:39;;;;;;;14.70;12.43;;;;;;;;;;4984981;28;20389;-81
2021/09/14 21:41:06;;;;;;;14.35;12.38;;;;;;;;;;4974714;28;20034;-79
2021/09/14 21:43:31;;;;;;;14.10;12.70;;;;;;;;;;4974919;28;20023;-83
2021/09/14 21:45:57;;;;;;;16.08;12.60;;;;;;;;;;4975134;28;20023;-82
2021/09/14 21:48:24;;;;;;;13.68;12.10;;;;;;;;;;4979644;28;20062;-81
2021/09/14 21:50:50;;;;;;;14.07;12.57;;;;;;;;;;4957464;28;20078;-84
2021/09/14 21:53:15;;;;;;;13.80;12.40;;;;;;;;;;4974838;28;20198;-83
2021/09/14 21:55:41;;;;;;;16.50;12.98;;;;;;;;;;4974812;28;20023;-83
2021/09/14 21:58:06;;;;;;;15.07;12.45;;;;;;;;;;4974529;28;20157;-82
2021/09/14 22:00:41;;;;;;;14.73;12.88;;;;;;;;;;4974568;28;20034;-83
2021/09/14 22:03:06;;;;;;;14.40;12.60;;;;;;;;;;4979846;28;20042;-83
2021/09/14 22:05:33;;;;;;;14.20;12.30;;;;;;;;;;4979889;28;20026;-78
2021/09/14 22:07:59;;;;;;;14.85;13.32;;;;;;;;;;4985926;28;20030;-83
2021/09/14 22:10:25;;;;;;;15.27;12.38;;;;;;;;;;4970035;28;20033;-82
